createdAt,value
2023-04-07T00:00:36.356Z,59.22
2023-04-07T00:01:36.434Z,67.67
2023-04-07T00:02:36.522Z,67.07
2023-04-07T00:03:36.614Z,62.69
2023-04-07T00:04:36.663Z,63.62
2023-04-07T00:05:36.530Z,61.24
2023-04-07T00:06:36.541Z,62.18
2023-04-07T00:07:42.201Z,57.59
2023-04-07T00:08:37.548Z,50.15
2023-04-07T00:09:36.521Z,46.38
2023-04-07T00:10:36.523Z,43.74
2023-04-07T00:11:36.528Z,45.49
2023-04-07T00:12:36.521Z,59.38
2023-04-07T00:13:36.511Z,76.17
2023-04-07T00:14:36.504Z,87.54
2023-04-07T00:15:36.531Z,79.67
2023-04-07T00:16:36.491Z,75.31
2023-04-07T00:17:36.514Z,77.27
2023-04-07T00:18:36.473Z,75.89
2023-04-07T00:19:36.516Z,100.02
2023-04-07T00:20:36.526Z,101.05
2023-04-07T00:21:36.576Z,97.99
2023-04-07T00:22:36.593Z,78.16
2023-04-07T00:23:36.612Z,64.36
2023-04-07T00:24:36.665Z,56.83
2023-04-07T00:25:36.695Z,52.11
2023-04-07T00:26:36.723Z,50.04
2023-04-07T00:27:36.773Z,41.84
2023-04-07T00:28:36.796Z,41.83
2023-04-07T00:29:36.853Z,43.13
2023-04-07T00:30:36.899Z,37.91
2023-04-07T00:31:36.950Z,35.73
2023-04-07T00:32:36.961Z,36.69
2023-04-07T00:33:36.992Z,36.77
2023-04-07T00:34:37.041Z,32.87
2023-04-07T00:35:37.135Z,35.12
2023-04-07T00:36:37.089Z,33.35
2023-04-07T00:37:37.100Z,34.78
2023-04-07T00:38:37.135Z,40.69
2023-04-07T00:39:37.193Z,45.55
2023-04-07T00:40:37.241Z,51.95
2023-04-07T00:41:37.245Z,55.89
2023-04-07T00:42:37.259Z,51.90
2023-04-07T00:43:37.297Z,52.64
2023-04-07T00:44:37.319Z,46.72
2023-04-07T00:45:37.341Z,47.84
2023-04-07T00:46:37.381Z,45.03
2023-04-07T00:47:37.412Z,40.64
2023-04-07T00:48:37.422Z,37.01
2023-04-07T00:49:37.451Z,40.19
2023-04-07T00:50:37.473Z,44.83
2023-04-07T00:51:37.493Z,42.34
2023-04-07T00:52:37.507Z,42.38
2023-04-07T00:53:37.536Z,42.03
2023-04-07T00:54:37.553Z,44.17
2023-04-07T00:55:37.605Z,45.38
2023-04-07T00:56:37.640Z,39.71
2023-04-07T00:57:37.686Z,39.74
2023-04-07T00:58:37.688Z,36.65
2023-04-07T00:59:37.775Z,38.41
2023-04-07T01:00:37.750Z,37.48
2023-04-07T01:01:37.908Z,38.70
2023-04-07T01:02:37.981Z,40.73
2023-04-07T01:03:38.206Z,39.97
2023-04-07T01:04:37.938Z,38.88
2023-04-07T01:05:37.907Z,37.20
2023-04-07T01:06:37.885Z,38.19
2023-04-07T01:07:37.917Z,37.95
2023-04-07T01:08:37.956Z,39.98
2023-04-07T01:09:37.986Z,41.20
2023-04-07T01:10:38.008Z,43.36
2023-04-07T01:11:38.017Z,41.48
2023-04-07T01:12:38.052Z,42.93
2023-04-07T01:13:38.084Z,46.40
2023-04-07T01:14:38.102Z,55.85
2023-04-07T01:15:38.135Z,52.98
2023-04-07T01:16:38.203Z,51.41
2023-04-07T01:17:38.226Z,55.53
2023-04-07T01:18:38.241Z,61.23
2023-04-07T01:19:38.267Z,52.77
2023-04-07T01:20:38.278Z,50.81
2023-04-07T01:21:38.309Z,49.82
2023-04-07T01:22:38.315Z,46.58
2023-04-07T01:23:38.351Z,45.70
2023-04-07T01:24:38.400Z,48.73
2023-04-07T01:25:38.442Z,48.75
2023-04-07T01:26:38.443Z,49.77
2023-04-07T01:27:38.489Z,43.91
2023-04-07T01:28:38.501Z,44.23
2023-04-07T01:29:38.540Z,38.02
2023-04-07T01:30:38.573Z,34.02
2023-04-07T01:31:38.681Z,30.96
2023-04-07T01:32:38.635Z,35.01
2023-04-07T01:33:38.647Z,41.79
2023-04-07T01:34:38.703Z,46.97
2023-04-07T01:35:38.665Z,45.57
2023-04-07T01:36:38.721Z,44.79
2023-04-07T01:37:38.733Z,45.43
2023-04-07T01:38:38.732Z,42.32
2023-04-07T01:39:38.757Z,44.15
2023-04-07T01:40:38.771Z,46.20
2023-04-07T01:41:38.782Z,36.88
2023-04-07T01:42:38.774Z,33.33
2023-04-07T01:43:38.794Z,29.63
2023-04-07T01:44:38.815Z,33.09
2023-04-07T01:45:38.850Z,40.88
2023-04-07T01:46:38.902Z,50.24
2023-04-07T01:47:38.962Z,45.43
2023-04-07T01:48:38.926Z,42.57
2023-04-07T01:49:38.918Z,36.98
2023-04-07T01:50:38.963Z,40.76
2023-04-07T01:51:38.958Z,40.42
2023-04-07T01:52:38.989Z,42.57
2023-04-07T01:53:38.998Z,37.44
2023-04-07T01:54:38.996Z,35.47
2023-04-07T01:55:39.019Z,32.70
2023-04-07T01:56:39.053Z,31.82
2023-04-07T01:57:39.061Z,35.01
2023-04-07T01:58:39.076Z,43.36
2023-04-07T01:59:39.133Z,51.16
2023-04-07T02:00:39.180Z,56.26
2023-04-07T02:01:39.255Z,59.36
2023-04-07T02:02:39.317Z,58.04
2023-04-07T02:03:39.353Z,51.37
2023-04-07T02:04:39.331Z,50.17
2023-04-07T02:05:39.303Z,46.83
2023-04-07T02:06:39.342Z,48.34
2023-04-07T02:07:39.349Z,47.88
2023-04-07T02:08:39.386Z,47.39
2023-04-07T02:09:39.414Z,44.24
2023-04-07T02:10:39.429Z,46.30
2023-04-07T02:11:39.445Z,45.45
2023-04-07T02:12:39.489Z,49.61
2023-04-07T02:13:39.500Z,57.10
2023-04-07T02:14:39.549Z,66.47
2023-04-07T02:15:39.592Z,68.30
2023-04-07T02:16:39.647Z,105.14
2023-04-07T02:17:39.738Z,172.97
2023-04-07T02:18:39.697Z,219.16
2023-04-07T02:19:39.744Z,165.46
2023-04-07T02:20:39.777Z,125.63
2023-04-07T02:21:39.798Z,110.05
2023-04-07T02:22:39.798Z,87.50
2023-04-07T02:23:39.816Z,74.83
2023-04-07T02:24:39.830Z,65.49
2023-04-07T02:25:39.917Z,63.05
2023-04-07T02:26:39.878Z,53.59
2023-04-07T02:27:39.890Z,46.15
2023-04-07T02:28:39.886Z,45.50
2023-04-07T02:29:39.897Z,42.89
2023-04-07T02:30:39.918Z,41.24
2023-04-07T02:31:40.006Z,43.68
2023-04-07T02:32:39.972Z,46.94
2023-04-07T02:33:39.939Z,44.57
2023-04-07T02:34:39.940Z,42.44
2023-04-07T02:35:39.979Z,42.20
2023-04-07T02:36:39.990Z,37.58
2023-04-07T02:37:39.958Z,34.23
2023-04-07T02:38:39.966Z,33.92
2023-04-07T02:39:39.982Z,34.70
2023-04-07T02:40:40.018Z,36.39
2023-04-07T02:41:39.999Z,36.93
2023-04-07T02:42:40.011Z,38.11
2023-04-07T02:43:40.048Z,37.09
2023-04-07T02:44:40.091Z,38.40
2023-04-07T02:45:40.110Z,40.03
2023-04-07T02:46:40.078Z,41.23
2023-04-07T02:47:40.162Z,45.09
2023-04-07T02:48:40.123Z,47.94
2023-04-07T02:49:40.141Z,48.39
2023-04-07T02:50:40.164Z,51.72
2023-04-07T02:51:40.150Z,50.28
2023-04-07T02:52:40.159Z,50.71
2023-04-07T02:53:40.183Z,49.48
2023-04-07T02:54:40.194Z,52.32
2023-04-07T02:55:40.235Z,54.18
2023-04-07T02:56:40.260Z,50.12
2023-04-07T02:57:40.257Z,46.36
2023-04-07T02:58:40.278Z,48.99
2023-04-07T02:59:40.320Z,44.68
2023-04-07T03:00:40.332Z,40.72
2023-04-07T03:01:40.507Z,43.40
2023-04-07T03:02:40.453Z,40.78
2023-04-07T03:03:40.532Z,39.16
2023-04-07T03:04:40.374Z,38.83
2023-04-07T03:05:40.432Z,38.09
2023-04-07T03:06:40.441Z,40.98
2023-04-07T03:07:40.443Z,40.23
2023-04-07T03:08:40.463Z,34.77
2023-04-07T03:09:40.450Z,32.32
2023-04-07T03:10:40.480Z,33.76
2023-04-07T03:11:40.517Z,36.75
2023-04-07T03:12:40.544Z,45.71
2023-04-07T03:13:40.604Z,53.18
2023-04-07T03:14:40.630Z,51.11
2023-04-07T03:15:40.652Z,43.42
2023-04-07T03:16:40.724Z,36.81
2023-04-07T03:17:40.744Z,32.04
2023-04-07T03:18:40.769Z,28.43
2023-04-07T03:19:40.826Z,27.48
2023-04-07T03:20:40.865Z,24.68
2023-04-07T03:21:40.873Z,23.71
2023-04-07T03:22:40.860Z,26.25
2023-04-07T03:23:40.875Z,27.40
2023-04-07T03:24:40.859Z,26.59
2023-04-07T03:25:40.906Z,26.55
2023-04-07T03:26:40.891Z,24.08
2023-04-07T03:27:40.918Z,23.70
2023-04-07T03:28:40.929Z,25.83
2023-04-07T03:29:40.957Z,25.79
2023-04-07T03:30:41.011Z,26.82
2023-04-07T03:31:41.004Z,26.44
2023-04-07T03:32:41.106Z,25.98
2023-04-07T03:33:41.046Z,26.66
2023-04-07T03:34:41.094Z,27.47
2023-04-07T03:35:41.099Z,26.14
2023-04-07T03:36:41.080Z,34.29
2023-04-07T03:37:41.099Z,42.97
2023-04-07T03:38:41.116Z,43.39
2023-04-07T03:39:41.181Z,41.84
2023-04-07T03:40:41.153Z,39.35
2023-04-07T03:41:41.108Z,35.23
2023-04-07T03:42:41.118Z,35.40
2023-04-07T03:43:41.109Z,33.95
2023-04-07T03:44:41.246Z,33.63
2023-04-07T03:45:41.113Z,36.36
2023-04-07T03:46:41.245Z,36.86
2023-04-07T03:47:41.154Z,36.16
2023-04-07T03:48:41.096Z,38.64
2023-04-07T03:49:41.106Z,42.39
2023-04-07T03:50:41.106Z,56.87
2023-04-07T03:51:41.084Z,73.94
2023-04-07T03:52:41.097Z,69.27
2023-04-07T03:53:41.106Z,65.16
2023-04-07T03:54:41.084Z,59.41
2023-04-07T03:55:41.092Z,56.00
2023-04-07T03:56:41.097Z,55.77
2023-04-07T03:57:41.113Z,52.91
2023-04-07T03:58:41.097Z,55.85
2023-04-07T03:59:41.080Z,53.99
2023-04-07T04:00:41.080Z,52.98
2023-04-07T04:01:41.162Z,54.03
2023-04-07T04:02:41.207Z,56.55
2023-04-07T04:03:41.164Z,60.12
2023-04-07T04:04:41.120Z,62.70
2023-04-07T04:05:41.064Z,64.55
2023-04-07T04:06:41.074Z,67.64
2023-04-07T04:07:41.069Z,73.76
2023-04-07T04:08:41.064Z,82.41
2023-04-07T04:09:41.072Z,86.98
2023-04-07T04:10:41.051Z,71.84
2023-04-07T04:11:41.046Z,70.50
2023-04-07T04:12:41.066Z,71.53
2023-04-07T04:13:41.053Z,66.62
2023-04-07T04:14:41.079Z,65.88
2023-04-07T04:15:41.129Z,63.88
2023-04-07T04:16:41.071Z,59.91
2023-04-07T04:17:41.128Z,61.27
2023-04-07T04:18:41.077Z,72.78
2023-04-07T04:19:41.087Z,79.81
2023-04-07T04:20:41.078Z,72.84
2023-04-07T04:21:41.072Z,67.17
2023-04-07T04:22:41.069Z,64.97
2023-04-07T04:23:41.066Z,62.50
2023-04-07T04:24:41.081Z,55.82
2023-04-07T04:25:41.085Z,51.02
2023-04-07T04:26:41.074Z,50.90
2023-04-07T04:27:41.102Z,45.63
2023-04-07T04:28:41.121Z,46.25
2023-04-07T04:29:41.110Z,45.58
2023-04-07T04:30:41.165Z,51.99
2023-04-07T04:31:41.194Z,55.10
2023-04-07T04:32:41.320Z,61.04
2023-04-07T04:33:41.260Z,57.24
2023-04-07T04:34:41.289Z,53.09
2023-04-07T04:35:41.347Z,54.17
2023-04-07T04:36:41.454Z,53.73
2023-04-07T04:37:41.383Z,50.12
2023-04-07T04:38:41.395Z,49.53
2023-04-07T04:39:41.392Z,50.21
2023-04-07T04:40:41.385Z,49.81
2023-04-07T04:41:41.377Z,49.93
2023-04-07T04:42:41.369Z,47.57
2023-04-07T04:43:42.358Z,49.83
2023-04-07T04:44:41.370Z,51.25
2023-04-07T04:45:41.384Z,52.57
2023-04-07T04:46:41.426Z,46.54
2023-04-07T04:47:41.460Z,44.89
2023-04-07T04:48:41.407Z,41.97
2023-04-07T04:49:41.393Z,42.51
2023-04-07T04:50:41.408Z,42.51
2023-04-07T04:51:41.383Z,47.68
2023-04-07T04:52:41.368Z,42.66
2023-04-07T04:53:41.383Z,41.53
2023-04-07T04:54:41.384Z,38.29
2023-04-07T04:55:41.373Z,40.10
2023-04-07T04:56:41.371Z,40.96
2023-04-07T04:57:41.367Z,42.20
2023-04-07T04:58:41.368Z,40.62
2023-04-07T04:59:41.369Z,39.84
2023-04-07T05:00:41.429Z,40.46
2023-04-07T05:01:41.472Z,40.30
2023-04-07T05:02:41.528Z,41.42
2023-04-07T05:03:41.572Z,44.40
2023-04-07T05:04:41.515Z,47.66
2023-04-07T05:05:41.478Z,48.78
2023-04-07T05:06:41.446Z,50.13
2023-04-07T05:07:41.442Z,52.75
2023-04-07T05:08:41.436Z,51.84
2023-04-07T05:09:41.422Z,50.90
2023-04-07T05:10:41.452Z,56.84
2023-04-07T05:11:41.428Z,54.65
2023-04-07T05:12:41.444Z,55.31
2023-04-07T05:13:41.437Z,61.35
2023-04-07T05:14:41.434Z,65.29
2023-04-07T05:15:41.464Z,69.47
2023-04-07T05:16:41.535Z,79.83
2023-04-07T05:17:41.543Z,87.21
2023-04-07T05:18:41.447Z,100.48
2023-04-07T05:19:41.448Z,108.72
2023-04-07T05:20:41.480Z,123.63
2023-04-07T05:21:41.520Z,135.73
2023-04-07T05:22:41.570Z,156.58
2023-04-07T05:23:41.637Z,164.45
2023-04-07T05:24:41.663Z,174.68
2023-04-07T05:25:41.717Z,173.70
2023-04-07T05:26:41.731Z,174.42
2023-04-07T05:27:41.783Z,173.24
2023-04-07T05:28:41.809Z,174.41
2023-04-07T05:29:41.848Z,175.90
2023-04-07T05:30:41.852Z,176.01
2023-04-07T05:31:41.887Z,174.11
2023-04-07T05:32:41.898Z,177.76
2023-04-07T05:33:41.856Z,173.49
2023-04-07T05:34:41.861Z,162.42
2023-04-07T05:35:41.861Z,139.08
2023-04-07T05:36:41.886Z,130.91
2023-04-07T05:37:41.870Z,125.18
2023-04-07T05:38:41.891Z,117.42
2023-04-07T05:39:41.867Z,124.50
2023-04-07T05:40:41.903Z,120.94
2023-04-07T05:41:41.896Z,122.71
2023-04-07T05:42:41.898Z,121.85
2023-04-07T05:43:41.893Z,120.63
2023-04-07T05:44:41.890Z,117.51
2023-04-07T05:45:41.925Z,123.97
2023-04-07T05:46:41.911Z,127.95
2023-04-07T05:47:41.937Z,131.93
2023-04-07T05:48:41.902Z,139.43
2023-04-07T05:49:41.946Z,137.45
2023-04-07T05:50:41.936Z,122.23
2023-04-07T05:51:41.947Z,118.90
2023-04-07T05:52:41.973Z,119.02
2023-04-07T05:53:41.986Z,111.65
2023-04-07T05:54:42.005Z,108.72
2023-04-07T05:55:42.036Z,105.01
2023-04-07T05:56:42.040Z,111.17
2023-04-07T05:57:42.036Z,113.57
2023-04-07T05:58:42.023Z,112.94
2023-04-07T05:59:42.031Z,113.51
2023-04-07T06:00:42.041Z,106.86
2023-04-07T06:01:42.156Z,110.94
2023-04-07T06:02:42.278Z,102.17
2023-04-07T06:03:42.206Z,114.97
2023-04-07T06:04:42.076Z,133.13
2023-04-07T06:05:42.094Z,152.15
2023-04-07T06:06:42.083Z,153.41
2023-04-07T06:07:42.083Z,149.57
2023-04-07T06:08:42.084Z,131.54
2023-04-07T06:09:42.083Z,127.93
2023-04-07T06:10:42.070Z,120.73
2023-04-07T06:11:42.064Z,122.54
2023-04-07T06:12:42.052Z,122.30
2023-04-07T06:13:42.063Z,118.62
2023-04-07T06:14:42.056Z,114.57
2023-04-07T06:15:42.058Z,109.03
2023-04-07T06:16:42.073Z,107.86
2023-04-07T06:17:42.102Z,110.28
2023-04-07T06:18:42.063Z,103.37
2023-04-07T06:19:42.070Z,110.48
2023-04-07T06:20:42.072Z,108.51
2023-04-07T06:21:42.099Z,103.48
2023-04-07T06:22:42.093Z,98.37
2023-04-07T06:23:42.122Z,101.70
2023-04-07T06:24:42.123Z,96.94
2023-04-07T06:25:42.146Z,96.91
2023-04-07T06:26:42.135Z,94.57
2023-04-07T06:27:42.169Z,96.97
2023-04-07T06:28:42.173Z,97.08
2023-04-07T06:29:42.216Z,97.54
2023-04-07T06:30:42.304Z,112.84
2023-04-07T06:31:42.294Z,120.43
2023-04-07T06:32:42.317Z,131.15
2023-04-07T06:33:42.304Z,141.88
2023-04-07T06:34:42.303Z,153.07
2023-04-07T06:35:42.340Z,173.45
2023-04-07T06:36:42.375Z,169.22
2023-04-07T06:37:42.413Z,146.16
2023-04-07T06:38:42.428Z,125.88
2023-04-07T06:39:42.456Z,103.70
2023-04-07T06:40:42.480Z,104.01
2023-04-07T06:41:42.505Z,110.20
2023-04-07T06:42:42.514Z,98.37
2023-04-07T06:43:42.555Z,101.66
2023-04-07T06:44:42.553Z,104.05
2023-04-07T06:45:42.628Z,100.14
2023-04-07T06:46:42.676Z,98.85
2023-04-07T06:47:42.698Z,90.62
2023-04-07T06:48:42.673Z,88.52
2023-04-07T06:49:42.698Z,88.81
2023-04-07T06:50:42.744Z,100.25
2023-04-07T06:51:42.748Z,109.09
2023-04-07T06:52:43.169Z,104.64
2023-04-07T06:53:42.820Z,107.88
2023-04-07T06:54:42.850Z,97.59
2023-04-07T06:55:42.900Z,102.43
2023-04-07T06:56:42.959Z,103.09
2023-04-07T06:57:42.996Z,81.81
2023-04-07T06:58:43.045Z,83.38
2023-04-07T06:59:43.078Z,103.89
2023-04-07T07:00:43.122Z,115.63
2023-04-07T07:01:43.231Z,127.46
2023-04-07T07:02:43.278Z,122.83
2023-04-07T07:03:43.359Z,104.05
2023-04-07T07:04:43.277Z,105.19
2023-04-07T07:05:43.316Z,91.51
2023-04-07T07:06:43.353Z,91.57
2023-04-07T07:07:43.417Z,88.71
2023-04-07T07:08:43.458Z,91.48
2023-04-07T07:09:43.492Z,105.43
2023-04-07T07:10:43.559Z,111.49
2023-04-07T07:11:43.617Z,101.52
2023-04-07T07:12:43.649Z,96.85
2023-04-07T07:13:43.713Z,87.06
2023-04-07T07:14:43.775Z,87.32
2023-04-07T07:15:43.850Z,97.27
2023-04-07T07:16:43.910Z,94.12
2023-04-07T07:17:44.048Z,102.44
2023-04-07T07:18:44.035Z,89.15
2023-04-07T07:19:44.079Z,85.90
2023-04-07T07:20:44.158Z,87.87
2023-04-07T07:21:44.204Z,92.82
2023-04-07T07:22:44.288Z,98.21
2023-04-07T07:23:44.333Z,102.33
2023-04-07T07:24:44.402Z,99.32
2023-04-07T07:25:44.445Z,100.45
2023-04-07T07:26:44.698Z,97.10
2023-04-07T07:27:44.604Z,97.36
2023-04-07T07:28:44.632Z,96.41
2023-04-07T07:29:44.681Z,97.78
2023-04-07T07:30:44.749Z,90.72
2023-04-07T07:31:44.776Z,82.93
2023-04-07T07:32:44.863Z,83.43
2023-04-07T07:33:44.874Z,87.51
2023-04-07T07:34:44.925Z,87.53
2023-04-07T07:35:44.981Z,85.81
2023-04-07T07:36:45.006Z,84.27
2023-04-07T07:37:45.033Z,89.83
2023-04-07T07:38:45.075Z,90.79
2023-04-07T07:39:45.125Z,95.24
2023-04-07T07:40:45.153Z,103.19
2023-04-07T07:41:45.164Z,115.84
2023-04-07T07:42:45.202Z,124.33
2023-04-07T07:43:45.432Z,121.39
2023-04-07T07:44:45.291Z,137.08
2023-04-07T07:45:45.313Z,180.38
2023-04-07T07:46:45.350Z,194.78
2023-04-07T07:47:45.371Z,205.07
2023-04-07T07:48:45.412Z,196.83
2023-04-07T07:49:45.439Z,189.44
2023-04-07T07:50:45.502Z,166.46
2023-04-07T07:51:45.567Z,164.78
2023-04-07T07:52:45.620Z,174.28
2023-04-07T07:53:45.948Z,183.62
2023-04-07T07:54:45.742Z,185.43
2023-04-07T07:55:45.830Z,200.44
2023-04-07T07:56:45.873Z,198.44
2023-04-07T07:57:45.933Z,198.25
2023-04-07T07:58:45.947Z,210.15
2023-04-07T07:59:45.970Z,213.91
2023-04-07T08:00:45.961Z,211.38
2023-04-07T08:01:45.989Z,216.52
2023-04-07T08:02:46.030Z,213.97
2023-04-07T08:03:46.228Z,211.83
2023-04-07T08:04:46.015Z,205.84
2023-04-07T08:05:45.995Z,201.51
2023-04-07T08:06:46.003Z,189.83
2023-04-07T08:07:46.002Z,176.63
2023-04-07T08:08:46.000Z,168.51
2023-04-07T08:09:45.995Z,164.63
2023-04-07T08:10:45.992Z,181.61
2023-04-07T08:11:46.004Z,168.35
2023-04-07T08:12:46.018Z,154.43
2023-04-07T08:13:46.519Z,152.43
2023-04-07T08:14:46.068Z,124.69
2023-04-07T08:15:46.105Z,94.74
2023-04-07T08:16:46.156Z,83.71
2023-04-07T08:17:46.229Z,71.23
2023-04-07T08:18:46.457Z,70.96
2023-04-07T08:19:46.322Z,64.64
2023-04-07T08:20:46.374Z,61.80
2023-04-07T08:21:46.425Z,56.15
2023-04-07T08:22:46.495Z,50.63
2023-04-07T08:23:46.746Z,49.57
2023-04-07T08:24:46.614Z,43.59
2023-04-07T08:25:46.669Z,42.16
2023-04-07T08:26:46.750Z,45.63
2023-04-07T08:27:46.793Z,42.51
2023-04-07T08:28:46.867Z,39.86
2023-04-07T08:29:46.929Z,39.50
2023-04-07T08:30:46.979Z,39.23
2023-04-07T08:31:47.066Z,38.39
2023-04-07T08:32:47.156Z,40.32
2023-04-07T08:33:47.351Z,37.79
2023-04-07T08:34:47.231Z,38.90
2023-04-07T08:35:47.288Z,39.66
2023-04-07T08:36:47.314Z,42.11
2023-04-07T08:37:47.368Z,39.86
2023-04-07T08:38:47.415Z,40.43
2023-04-07T08:39:47.467Z,40.21
2023-04-07T08:40:47.499Z,42.81
2023-04-07T08:41:47.549Z,39.03
2023-04-07T08:42:47.567Z,36.12
2023-04-07T08:43:47.822Z,36.94
2023-04-07T08:44:47.603Z,37.59
2023-04-07T08:45:47.621Z,38.15
2023-04-07T08:46:47.644Z,39.08
2023-04-07T08:47:47.671Z,40.04
2023-04-07T08:48:47.631Z,40.69
2023-04-07T08:49:47.641Z,41.26
2023-04-07T08:50:47.642Z,44.18
2023-04-07T08:51:47.653Z,44.02
2023-04-07T08:52:47.644Z,44.69
2023-04-07T08:53:47.698Z,45.97
2023-04-07T08:54:47.611Z,47.65
2023-04-07T08:55:47.617Z,49.37
2023-04-07T08:56:47.610Z,50.06
2023-04-07T08:57:47.622Z,52.02
2023-04-07T08:58:47.619Z,53.18
2023-04-07T08:59:47.644Z,49.62
2023-04-07T09:00:47.638Z,49.79
2023-04-07T09:01:47.653Z,50.13
2023-04-07T09:02:47.644Z,49.63
2023-04-07T09:03:47.944Z,49.18
2023-04-07T09:04:47.596Z,50.06
2023-04-07T09:05:47.615Z,47.07
2023-04-07T09:06:47.592Z,47.64
2023-04-07T09:07:47.615Z,46.09
2023-04-07T09:08:47.591Z,47.37
2023-04-07T09:09:47.602Z,47.78
2023-04-07T09:10:47.603Z,48.55
2023-04-07T09:11:47.611Z,46.08
2023-04-07T09:12:47.600Z,53.65
2023-04-07T09:13:47.772Z,54.67
2023-04-07T09:14:47.606Z,56.67
2023-04-07T09:15:47.604Z,50.26
2023-04-07T09:16:47.701Z,48.95
2023-04-07T09:17:47.696Z,48.15
2023-04-07T09:18:47.632Z,50.34
2023-04-07T09:19:47.633Z,44.68
2023-04-07T09:20:47.623Z,44.53
2023-04-07T09:21:47.629Z,42.58
2023-04-07T09:22:47.659Z,44.47
2023-04-07T09:23:47.972Z,42.87
2023-04-07T09:24:47.684Z,40.49
2023-04-07T09:25:47.691Z,37.48
2023-04-07T09:26:47.692Z,41.00
2023-04-07T09:27:47.698Z,39.50
2023-04-07T09:28:47.685Z,37.60
2023-04-07T09:29:47.761Z,39.90
2023-04-07T09:30:47.698Z,35.61
2023-04-07T09:31:47.761Z,32.82
2023-04-07T09:32:47.745Z,35.54
2023-04-07T09:33:47.913Z,30.71
2023-04-07T09:34:47.752Z,32.36
2023-04-07T09:35:47.767Z,36.06
2023-04-07T09:36:47.768Z,41.46
2023-04-07T09:37:47.776Z,41.90
2023-04-07T09:38:47.773Z,40.97
2023-04-07T09:39:47.788Z,43.94
2023-04-07T09:40:47.810Z,46.88
2023-04-07T09:41:47.851Z,48.80
2023-04-07T09:42:47.827Z,47.30
2023-04-07T09:43:48.055Z,53.76
2023-04-07T09:44:47.852Z,43.91
2023-04-07T09:45:47.928Z,42.94
2023-04-07T09:46:47.892Z,51.49
2023-04-07T09:47:47.895Z,61.28
2023-04-07T09:48:47.885Z,62.06
2023-04-07T09:49:47.891Z,60.42
2023-04-07T09:50:47.934Z,63.49
2023-04-07T09:51:47.923Z,57.37
2023-04-07T09:52:47.945Z,57.59
2023-04-07T09:53:48.325Z,51.14
2023-04-07T09:54:47.957Z,45.72
2023-04-07T09:55:48.055Z,48.94
2023-04-07T09:56:49.967Z,47.39
2023-04-07T09:57:47.966Z,49.50
2023-04-07T09:58:47.970Z,51.95
2023-04-07T09:59:47.957Z,54.34
2023-04-07T10:00:47.994Z,60.86
2023-04-07T10:01:48.054Z,59.09
2023-04-07T10:02:48.041Z,62.49
2023-04-07T10:03:48.220Z,67.54
2023-04-07T10:04:47.939Z,60.05
2023-04-07T10:05:47.943Z,51.85
2023-04-07T10:06:47.936Z,63.72
2023-04-07T10:07:47.922Z,61.50
2023-04-07T10:08:48.101Z,71.10
2023-04-07T10:09:47.885Z,67.77
2023-04-07T10:10:47.902Z,61.52
2023-04-07T10:11:47.877Z,62.60
2023-04-07T10:12:47.884Z,66.70
2023-04-07T10:13:48.066Z,67.61
2023-04-07T10:14:47.872Z,69.45
2023-04-07T10:15:47.875Z,73.11
2023-04-07T10:16:47.873Z,76.14
2023-04-07T10:17:47.874Z,65.30
2023-04-07T10:18:47.829Z,65.45
2023-04-07T10:19:47.842Z,61.25
2023-04-07T10:20:47.844Z,59.50
2023-04-07T10:21:47.814Z,62.60
2023-04-07T10:22:47.825Z,59.93
2023-04-07T10:23:47.888Z,58.75
2023-04-07T10:24:47.798Z,54.56
2023-04-07T10:25:47.839Z,58.19
2023-04-07T10:26:47.794Z,60.29
2023-04-07T10:27:47.788Z,53.51
2023-04-07T10:28:47.785Z,62.09
2023-04-07T10:29:47.788Z,66.51
2023-04-07T10:30:47.807Z,65.37
2023-04-07T10:31:47.753Z,71.27
2023-04-07T10:32:47.766Z,73.33
2023-04-07T10:33:48.179Z,57.22
2023-04-07T10:34:47.737Z,50.15
2023-04-07T10:35:47.782Z,55.16
2023-04-07T10:36:47.738Z,63.81
2023-04-07T10:37:47.729Z,77.00
2023-04-07T10:38:47.703Z,74.31
2023-04-07T10:39:47.717Z,70.78
2023-04-07T10:40:47.736Z,61.79
2023-04-07T10:41:47.704Z,44.15
2023-04-07T10:42:47.703Z,43.81
2023-04-07T10:43:47.962Z,38.39
2023-04-07T10:44:47.668Z,41.14
2023-04-07T10:45:47.692Z,53.39
2023-04-07T10:46:47.668Z,48.08
2023-04-07T10:47:47.683Z,46.77
2023-04-07T10:48:47.654Z,55.54
2023-04-07T10:49:47.654Z,49.91
2023-04-07T10:50:47.634Z,47.62
2023-04-07T10:51:47.648Z,50.71
2023-04-07T10:52:47.639Z,51.90
2023-04-07T10:53:47.627Z,52.00
2023-04-07T10:54:47.605Z,50.40
2023-04-07T10:55:47.608Z,53.95
2023-04-07T10:56:47.604Z,48.19
2023-04-07T10:57:47.599Z,42.58
2023-04-07T10:58:47.594Z,34.28
2023-04-07T10:59:47.588Z,34.18
2023-04-07T11:00:47.612Z,34.89
2023-04-07T11:01:47.650Z,33.59
2023-04-07T11:02:47.794Z,24.35
2023-04-07T11:03:47.802Z,23.48
2023-04-07T11:04:47.654Z,20.14
2023-04-07T11:05:47.557Z,16.07
2023-04-07T11:06:47.527Z,13.48
2023-04-07T11:07:47.527Z,12.16
2023-04-07T11:08:49.004Z,13.65
2023-04-07T11:09:47.509Z,18.74
2023-04-07T11:10:47.532Z,23.72
2023-04-07T11:11:47.504Z,21.09
2023-04-07T11:12:47.485Z,21.10
2023-04-07T11:13:47.713Z,21.85
2023-04-07T11:14:47.490Z,21.78
2023-04-07T11:15:47.586Z,20.33
2023-04-07T11:16:47.533Z,21.09
2023-04-07T11:17:47.621Z,25.62
2023-04-07T11:18:47.555Z,24.87
2023-04-07T11:19:47.536Z,19.19
2023-04-07T11:20:47.550Z,19.50
2023-04-07T11:21:47.547Z,20.37
2023-04-07T11:22:47.541Z,20.68
2023-04-07T11:23:48.166Z,16.73
2023-04-07T11:24:47.525Z,13.06
2023-04-07T11:25:47.564Z,13.38
2023-04-07T11:26:48.823Z,14.16
2023-04-07T11:27:47.535Z,12.69
2023-04-07T11:28:47.528Z,10.82
2023-04-07T11:29:47.504Z,11.14
2023-04-07T11:30:47.516Z,12.83
2023-04-07T11:31:47.580Z,13.41
2023-04-07T11:32:47.582Z,12.22
2023-04-07T11:33:47.660Z,12.40
2023-04-07T11:34:47.491Z,13.60
2023-04-07T11:35:47.521Z,13.90
2023-04-07T11:36:47.465Z,14.17
2023-04-07T11:37:47.482Z,14.36
2023-04-07T11:38:47.465Z,13.97
2023-04-07T11:39:47.452Z,14.22
2023-04-07T11:40:47.438Z,15.26
2023-04-07T11:41:47.447Z,15.73
2023-04-07T11:42:47.425Z,14.41
2023-04-07T11:43:47.620Z,17.92
2023-04-07T11:44:47.403Z,19.48
2023-04-07T11:45:47.416Z,20.86
2023-04-07T11:46:47.430Z,20.87
2023-04-07T11:47:47.418Z,20.62
2023-04-07T11:48:47.391Z,22.34
2023-04-07T11:49:47.381Z,21.92
2023-04-07T11:50:47.370Z,25.09
2023-04-07T11:51:47.357Z,25.80
2023-04-07T11:52:47.358Z,24.26
2023-04-07T11:53:47.652Z,27.43
2023-04-07T11:54:47.425Z,22.83
2023-04-07T11:55:47.342Z,26.03
2023-04-07T11:56:47.323Z,26.01
2023-04-07T11:57:47.326Z,23.88
2023-04-07T11:58:47.301Z,27.09
2023-04-07T11:59:47.301Z,28.31
2023-04-07T12:00:47.295Z,21.36
2023-04-07T12:01:47.376Z,26.05
2023-04-07T12:02:47.493Z,26.86
2023-04-07T12:03:47.530Z,29.69
2023-04-07T12:04:47.358Z,23.13
2023-04-07T12:05:47.274Z,25.75
2023-04-07T12:06:47.261Z,21.95
2023-04-07T12:07:47.261Z,19.37
2023-04-07T12:08:47.242Z,18.27
2023-04-07T12:09:47.244Z,21.33
2023-04-07T12:10:47.265Z,28.11
2023-04-07T12:11:47.235Z,26.44
2023-04-07T12:12:47.225Z,27.41
2023-04-07T12:13:47.433Z,19.94
2023-04-07T12:14:47.201Z,15.51
2023-04-07T12:15:47.217Z,12.21
2023-04-07T12:16:47.212Z,7.55
2023-04-07T12:17:47.230Z,9.17
2023-04-07T12:18:47.183Z,8.23
2023-04-07T12:19:47.165Z,7.40
2023-04-07T12:20:47.160Z,10.90
2023-04-07T12:21:47.179Z,10.02
2023-04-07T12:22:47.155Z,9.67
2023-04-07T12:23:47.365Z,9.24
2023-04-07T12:24:47.139Z,8.84
2023-04-07T12:25:47.124Z,7.35
2023-04-07T12:26:47.127Z,7.93
2023-04-07T12:27:47.119Z,7.37
2023-04-07T12:28:47.102Z,8.27
2023-04-07T12:29:47.097Z,7.06
2023-04-07T12:30:47.085Z,7.44
2023-04-07T12:31:49.388Z,7.26
2023-04-07T12:32:47.155Z,7.31
2023-04-07T12:33:47.277Z,7.56
2023-04-07T12:34:47.076Z,7.41
2023-04-07T12:35:47.123Z,8.25
2023-04-07T12:36:47.061Z,9.22
2023-04-07T12:37:48.988Z,8.02
2023-04-07T12:38:47.038Z,7.89
2023-04-07T12:39:47.042Z,8.12
2023-04-07T12:40:47.023Z,7.27
2023-04-07T12:41:47.013Z,8.05
2023-04-07T12:42:47.011Z,7.69
2023-04-07T12:43:47.252Z,7.43
2023-04-07T12:44:47.009Z,7.79
2023-04-07T12:45:47.041Z,9.02
2023-04-07T12:46:46.993Z,10.18
2023-04-07T12:47:47.041Z,9.86
2023-04-07T12:48:46.985Z,9.35
2023-04-07T12:49:48.551Z,9.73